createdAt,value
2022-12-11T00:02:03.378Z,21.57
2022-12-11T00:04:31.455Z,22.43
2022-12-11T00:06:59.346Z,25.33
2022-12-11T00:09:27.354Z,18.67
2022-12-11T00:11:55.361Z,27.07
2022-12-11T00:14:23.260Z,25.70
2022-12-11T00:16:51.232Z,28.97
2022-12-11T00:19:20.556Z,24.73
2022-12-11T00:21:48.444Z,26.70
2022-12-11T00:24:16.771Z,25.00
2022-12-11T00:26:44.640Z,29.90
2022-12-11T00:29:14.668Z,29.90
2022-12-11T00:31:43.000Z,29.87
2022-12-11T00:34:12.069Z,28.23
2022-12-11T00:36:41.366Z,28.17
2022-12-11T00:39:09.251Z,26.87
2022-12-11T00:41:37.168Z,26.97
2022-12-11T00:44:05.692Z,24.50
2022-12-11T00:46:33.619Z,23.80
2022-12-11T00:49:01.500Z,28.47
2022-12-11T00:51:29.436Z,26.90
2022-12-11T00:53:58.685Z,24.20
2022-12-11T00:56:26.637Z,25.60
2022-12-11T00:58:54.552Z,23.67
2022-12-11T01:01:24.124Z,24.87
2022-12-11T01:03:52.789Z,26.57
2022-12-11T01:06:24.722Z,25.40
2022-12-11T01:09:14.647Z,23.50
2022-12-11T01:11:43.288Z,27.50
2022-12-11T01:14:11.743Z,24.87
2022-12-11T01:16:39.742Z,27.30
2022-12-11T01:19:07.684Z,27.70
2022-12-11T01:21:35.599Z,27.63
2022-12-11T01:24:03.528Z,26.20
2022-12-11T01:26:31.438Z,26.50
2022-12-11T01:29:01.404Z,27.57
2022-12-11T01:31:29.496Z,24.37
2022-12-11T01:33:57.765Z,25.53
2022-12-11T01:36:25.771Z,22.60
2022-12-11T01:38:54.519Z,23.57
2022-12-11T01:41:22.527Z,26.33
2022-12-11T01:44:03.962Z,25.03
2022-12-11T01:46:33.898Z,25.00
2022-12-11T01:49:02.663Z,29.10
2022-12-11T01:51:31.048Z,21.60
2022-12-11T01:54:00.899Z,20.83
2022-12-11T01:56:31.950Z,21.60
2022-12-11T01:59:07.048Z,22.77
2022-12-11T02:01:38.614Z,24.27
2022-12-11T02:04:08.080Z,29.37
2022-12-11T02:06:38.390Z,29.13
2022-12-11T02:09:07.764Z,22.60
2022-12-11T02:11:41.167Z,28.50
2022-12-11T02:14:17.456Z,23.13
2022-12-11T02:16:48.201Z,25.77
2022-12-11T02:19:23.347Z,25.57
2022-12-11T02:21:54.425Z,23.73
2022-12-11T02:24:32.134Z,25.00
2022-12-11T02:27:29.999Z,19.70
2022-12-11T02:30:03.532Z,25.50
2022-12-11T02:32:36.451Z,24.40
2022-12-11T02:35:10.521Z,23.10
2022-12-11T02:37:41.169Z,21.33
2022-12-11T02:40:12.312Z,20.30
2022-12-11T02:42:42.169Z,18.03
2022-12-11T02:45:12.983Z,27.97
2022-12-11T02:47:41.194Z,29.97
2022-12-11T02:50:12.530Z,21.40
2022-12-11T02:52:42.865Z,22.97
2022-12-11T02:55:13.595Z,19.40
2022-12-11T02:57:45.741Z,20.43
2022-12-11T03:00:16.712Z,17.97
2022-12-11T03:02:45.365Z,19.83
2022-12-11T03:05:14.346Z,22.37
2022-12-11T03:07:46.107Z,24.97
2022-12-11T03:10:16.432Z,23.23
2022-12-11T03:12:48.115Z,28.07
2022-12-11T03:15:23.175Z,26.13
2022-12-11T03:17:59.204Z,27.70
2022-12-11T03:20:34.808Z,22.63
2022-12-11T03:23:07.011Z,21.57
2022-12-11T03:25:37.693Z,18.90
2022-12-11T03:28:11.204Z,23.13
2022-12-11T03:30:41.523Z,19.83
2022-12-11T03:33:11.827Z,24.23
2022-12-11T03:35:42.036Z,20.67
2022-12-11T03:38:13.777Z,21.23
2022-12-11T03:40:44.423Z,22.60
2022-12-11T03:43:12.595Z,22.90
2022-12-11T03:45:42.643Z,16.93
2022-12-11T03:48:11.469Z,21.87
2022-12-11T03:50:39.716Z,21.83
2022-12-11T03:53:08.306Z,19.70
2022-12-11T03:55:37.775Z,21.57
2022-12-11T03:58:05.695Z,25.57
2022-12-11T04:00:33.690Z,23.37
2022-12-11T04:03:15.126Z,19.87
2022-12-11T04:05:43.815Z,17.90
2022-12-11T04:08:11.895Z,21.33
2022-12-11T04:10:40.150Z,16.43
2022-12-11T04:13:08.666Z,14.57
2022-12-11T04:15:35.713Z,18.03
2022-12-11T04:18:22.520Z,12.17
2022-12-11T04:21:07.644Z,15.90
2022-12-11T04:24:07.446Z,13.77
2022-12-11T04:26:35.366Z,12.07
2022-12-11T04:29:03.275Z,13.03
2022-12-11T04:31:31.281Z,14.63
2022-12-11T04:34:00.606Z,11.17
2022-12-11T04:36:28.594Z,14.83
2022-12-11T04:38:56.558Z,14.23
2022-12-11T04:41:24.444Z,15.80
2022-12-11T04:43:52.412Z,16.40
2022-12-11T04:46:22.570Z,13.03
2022-12-11T04:48:56.844Z,16.20
2022-12-11T04:51:27.108Z,15.23
2022-12-11T04:53:55.518Z,14.50
2022-12-11T04:56:23.505Z,17.63
2022-12-11T04:58:51.412Z,17.70
2022-12-11T05:01:22.285Z,15.50
2022-12-11T05:03:50.338Z,13.57
2022-12-11T05:06:18.270Z,12.63
2022-12-11T05:08:47.572Z,9.93
2022-12-11T05:11:16.824Z,16.33
2022-12-11T05:13:45.425Z,12.63
2022-12-11T05:16:15.794Z,10.50
2022-12-11T05:18:44.357Z,12.10
2022-12-11T05:21:15.063Z,16.17
2022-12-11T05:23:43.634Z,16.90
2022-12-11T05:26:15.783Z,14.20
2022-12-11T05:28:44.454Z,17.50
2022-12-11T05:31:15.984Z,12.50
2022-12-11T05:33:44.153Z,11.20
2022-12-11T05:36:15.187Z,14.00
2022-12-11T05:38:43.092Z,11.77
2022-12-11T05:41:16.756Z,17.40
2022-12-11T05:43:44.731Z,11.30
2022-12-11T05:46:14.971Z,11.57
2022-12-11T05:48:43.669Z,11.03
2022-12-11T05:51:12.206Z,9.83
2022-12-11T05:53:41.581Z,13.57
2022-12-11T05:56:12.690Z,14.53
2022-12-11T05:58:43.185Z,11.60
2022-12-11T06:01:12.748Z,10.67
2022-12-11T06:03:40.697Z,7.73
2022-12-11T06:06:09.156Z,14.33
2022-12-11T06:08:37.240Z,6.47
2022-12-11T06:11:05.401Z,9.10
2022-12-11T06:13:33.623Z,7.57
2022-12-11T06:16:04.200Z,8.23
2022-12-11T06:18:32.743Z,9.23
2022-12-11T06:21:00.575Z,17.93
2022-12-11T06:23:28.483Z,12.57
2022-12-11T06:25:56.351Z,8.50
2022-12-11T06:28:24.177Z,6.47
2022-12-11T06:30:52.601Z,6.83
2022-12-11T06:33:21.806Z,7.23
2022-12-11T06:35:49.641Z,9.57
2022-12-11T06:38:17.512Z,7.07
2022-12-11T06:40:45.471Z,8.30
2022-12-11T06:43:13.307Z,7.60
2022-12-11T06:45:41.226Z,9.40
2022-12-11T06:48:09.745Z,8.80
2022-12-11T06:50:40.497Z,6.70
2022-12-11T06:53:08.437Z,12.10
2022-12-11T06:55:36.713Z,16.87
2022-12-11T06:58:04.913Z,14.47
2022-12-11T07:00:32.906Z,12.87
2022-12-11T07:03:00.729Z,8.10
2022-12-11T07:05:28.644Z,8.00
2022-12-11T07:07:58.009Z,8.97
2022-12-11T07:10:27.295Z,9.70
2022-12-11T07:12:55.280Z,9.53
2022-12-11T07:15:23.199Z,8.70
2022-12-11T07:17:51.083Z,12.80
2022-12-11T07:20:19.147Z,12.17
2022-12-11T07:22:47.090Z,9.17
2022-12-11T07:25:16.578Z,10.03
2022-12-11T07:27:44.771Z,8.43
2022-12-11T07:30:14.133Z,10.03
2022-12-11T07:32:42.118Z,6.07
2022-12-11T07:35:10.829Z,10.50
2022-12-11T07:37:41.595Z,8.27
2022-12-11T07:40:10.976Z,7.03
2022-12-11T07:42:45.790Z,7.93
2022-12-11T07:45:14.417Z,8.30
2022-12-11T07:47:42.868Z,8.23
2022-12-11T07:50:11.073Z,9.70
2022-12-11T07:52:38.991Z,8.93
2022-12-11T07:55:07.438Z,8.37
2022-12-11T07:57:35.380Z,7.53
2022-12-11T08:00:06.048Z,10.07
2022-12-11T08:02:37.202Z,7.60
2022-12-11T08:05:06.154Z,13.43
2022-12-11T08:07:35.548Z,6.30
2022-12-11T08:10:03.546Z,9.53
2022-12-11T08:12:31.591Z,6.97
2022-12-11T08:14:59.753Z,6.20
2022-12-11T08:17:32.799Z,7.40
2022-12-11T08:20:03.161Z,10.83
2022-12-11T08:22:31.055Z,13.30
2022-12-11T08:24:59.359Z,7.67
2022-12-11T08:27:27.462Z,10.43
2022-12-11T08:29:55.353Z,9.50
2022-12-11T08:32:23.265Z,8.47
2022-12-11T08:34:53.564Z,7.30
2022-12-11T08:37:21.457Z,9.63
2022-12-11T08:39:49.366Z,12.20
2022-12-11T08:42:17.268Z,7.70
2022-12-11T08:44:46.084Z,11.73
2022-12-11T08:47:15.401Z,12.50
2022-12-11T08:49:43.347Z,8.57
2022-12-11T08:52:12.617Z,18.17
2022-12-11T08:54:40.548Z,8.67
2022-12-11T08:57:08.480Z,7.47
2022-12-11T08:59:36.457Z,8.57
2022-12-11T09:02:04.372Z,10.10
2022-12-11T09:04:32.300Z,10.90
2022-12-11T09:07:00.216Z,8.50
2022-12-11T09:09:29.467Z,14.70
2022-12-11T09:11:57.633Z,8.27
2022-12-11T09:14:25.555Z,7.30
2022-12-11T09:16:53.422Z,7.97
2022-12-11T09:19:21.319Z,8.43
2022-12-11T09:21:49.289Z,6.87
2022-12-11T09:24:17.299Z,7.47
2022-12-11T09:26:47.250Z,7.90
2022-12-11T09:29:15.224Z,6.10
2022-12-11T09:31:43.271Z,7.07
2022-12-11T09:34:13.986Z,5.87
2022-12-11T09:36:42.691Z,10.07
2022-12-11T09:39:12.550Z,13.17
2022-12-11T09:41:41.731Z,6.10
2022-12-11T09:44:31.547Z,7.73
2022-12-11T09:46:59.976Z,9.80
2022-12-11T09:49:32.948Z,12.50
2022-12-11T09:52:06.340Z,9.93
2022-12-11T09:54:34.553Z,8.37
2022-12-11T09:57:11.331Z,9.80
2022-12-11T09:59:48.665Z,9.20
2022-12-11T10:02:25.968Z,12.60
2022-12-11T10:05:02.769Z,7.73
2022-12-11T10:07:36.232Z,5.80
2022-12-11T10:10:10.421Z,5.20
2022-12-11T10:12:43.553Z,5.50
2022-12-11T10:15:33.286Z,5.37
2022-12-11T10:18:05.110Z,10.00
2022-12-11T10:20:36.536Z,6.37
2022-12-11T10:23:07.744Z,11.33
2022-12-11T10:25:38.408Z,4.40
2022-12-11T10:28:13.389Z,5.23
2022-12-11T10:30:48.156Z,4.90
2022-12-11T10:33:21.523Z,8.47
2022-12-11T10:35:51.785Z,13.83
2022-12-11T10:38:24.847Z,5.83
2022-12-11T10:40:55.514Z,5.13
2022-12-11T10:43:34.048Z,6.40
2022-12-11T10:46:03.668Z,6.60
2022-12-11T10:48:31.569Z,6.70
2022-12-11T10:51:02.297Z,7.40
2022-12-11T10:53:30.884Z,6.97
2022-12-11T10:55:59.893Z,7.00
2022-12-11T10:58:31.862Z,6.90
2022-12-11T11:01:06.533Z,6.10
2022-12-11T11:03:35.670Z,12.90
2022-12-11T11:06:05.519Z,6.13
2022-12-11T11:08:40.708Z,6.50
2022-12-11T11:11:22.472Z,4.97
2022-12-11T11:13:50.595Z,8.03
2022-12-11T11:16:21.948Z,6.20
2022-12-11T11:18:55.307Z,6.80
2022-12-11T11:21:25.563Z,8.63
2022-12-11T11:23:54.643Z,16.90
2022-12-11T11:26:23.642Z,8.70
2022-12-11T11:28:54.111Z,9.50
2022-12-11T11:31:33.197Z,33.83
2022-12-11T11:34:04.090Z,6.40
2022-12-11T11:36:34.475Z,10.50
2022-12-11T11:39:18.132Z,8.80
2022-12-11T11:41:51.855Z,8.70
2022-12-11T11:44:24.851Z,7.00
2022-12-11T11:46:59.539Z,6.40
2022-12-11T11:49:37.356Z,7.03
2022-12-11T11:52:13.591Z,8.23
2022-12-11T11:54:45.056Z,8.80
2022-12-11T11:57:16.053Z,9.07
2022-12-11T11:59:47.588Z,6.00
2022-12-11T12:02:18.737Z,9.47
2022-12-11T12:04:51.228Z,5.30
2022-12-11T12:07:28.842Z,7.03
2022-12-11T12:10:00.258Z,6.83
2022-12-11T12:12:35.884Z,6.00
2022-12-11T12:15:18.378Z,11.80
2022-12-11T12:17:55.708Z,6.93
2022-12-11T12:20:31.017Z,6.67
2022-12-11T12:23:04.307Z,7.97
2022-12-11T12:25:36.894Z,7.17
2022-12-11T12:28:14.449Z,9.10
2022-12-11T12:30:52.187Z,7.40
2022-12-11T12:33:28.642Z,10.67
2022-12-11T12:36:07.210Z,7.93
2022-12-11T12:38:42.641Z,7.83
2022-12-11T12:41:15.671Z,8.70
2022-12-11T12:43:58.545Z,11.23
2022-12-11T12:46:35.973Z,10.33
2022-12-11T12:49:05.881Z,9.73
2022-12-11T12:51:33.919Z,11.30
2022-12-11T12:54:09.086Z,9.70
2022-12-11T12:56:43.665Z,8.47
2022-12-11T12:59:21.029Z,11.63
2022-12-11T13:01:52.313Z,12.17
2022-12-11T13:04:55.159Z,10.80
2022-12-11T13:07:27.273Z,9.27
2022-12-11T13:10:04.489Z,13.30
2022-12-11T13:12:35.280Z,11.77
2022-12-11T13:15:03.198Z,7.17
2022-12-11T13:17:38.660Z,5.77
2022-12-11T13:20:16.208Z,6.60
2022-12-11T13:22:57.827Z,5.23
2022-12-11T13:25:29.569Z,5.83
2022-12-11T13:28:06.728Z,13.53
2022-12-11T13:30:35.457Z,9.17
2022-12-11T13:33:06.508Z,6.33
2022-12-11T13:35:36.527Z,5.70
2022-12-11T13:38:14.008Z,6.90
2022-12-11T13:40:43.432Z,6.23
2022-12-11T13:43:19.743Z,7.93
2022-12-11T13:45:50.769Z,10.27
2022-12-11T13:48:24.952Z,6.20
2022-12-11T13:50:55.019Z,18.23
2022-12-11T13:53:23.645Z,14.20
2022-12-11T13:55:59.230Z,9.83
2022-12-11T13:58:27.794Z,15.07
2022-12-11T14:01:07.657Z,11.80
2022-12-11T14:03:36.295Z,12.10
2022-12-11T14:06:06.039Z,12.23
2022-12-11T14:08:36.172Z,23.23
2022-12-11T14:11:04.380Z,14.80
2022-12-11T14:13:34.514Z,14.83
2022-12-11T14:16:03.070Z,19.30
2022-12-11T14:18:33.130Z,15.60
2022-12-11T14:21:03.298Z,14.67
2022-12-11T14:23:33.789Z,11.90
2022-12-11T14:26:03.281Z,12.50
2022-12-11T14:28:38.447Z,15.23
2022-12-11T14:31:07.076Z,11.40
2022-12-11T14:33:38.067Z,15.20
2022-12-11T14:36:07.414Z,12.90
2022-12-11T14:38:39.579Z,12.23
2022-12-11T14:41:13.808Z,12.53
2022-12-11T14:43:45.488Z,12.70
2022-12-11T14:46:18.364Z,20.67
2022-12-11T14:48:49.467Z,14.97
2022-12-11T14:51:19.283Z,12.63
2022-12-11T14:53:50.601Z,13.57
2022-12-11T14:56:21.166Z,14.93
2022-12-11T14:58:54.654Z,13.00
2022-12-11T15:01:24.641Z,14.93
2022-12-11T15:04:04.204Z,14.67
2022-12-11T15:06:33.743Z,14.03
2022-12-11T15:09:18.822Z,15.57
2022-12-11T15:11:47.257Z,22.20
2022-12-11T15:14:15.508Z,14.40
2022-12-11T15:16:43.719Z,15.23
2022-12-11T15:19:20.788Z,17.10
2022-12-11T15:21:48.863Z,13.17
2022-12-11T15:24:27.562Z,11.70
2022-12-11T15:26:59.169Z,11.43
2022-12-11T15:29:32.246Z,12.87
2022-12-11T15:32:01.507Z,11.27
2022-12-11T15:34:34.791Z,10.97
2022-12-11T15:37:03.029Z,12.50
2022-12-11T15:39:32.344Z,12.80
2022-12-11T15:42:08.276Z,9.10
2022-12-11T15:44:36.188Z,10.27
2022-12-11T15:47:13.264Z,15.60
2022-12-11T15:49:41.159Z,14.37
2022-12-11T15:52:09.355Z,13.23
2022-12-11T15:54:38.676Z,10.40
2022-12-11T15:57:10.973Z,15.40
2022-12-11T15:59:38.938Z,11.00
2022-12-11T16:02:12.074Z,11.90
2022-12-11T16:04:40.104Z,9.57
2022-12-11T16:07:14.546Z,12.77
2022-12-11T16:09:43.884Z,15.80
2022-12-11T16:12:12.101Z,12.40
2022-12-11T16:14:40.108Z,15.57
2022-12-11T16:17:08.569Z,12.80
2022-12-11T16:19:37.611Z,14.20
2022-12-11T16:22:06.053Z,17.47
2022-12-11T16:24:34.513Z,11.80
2022-12-11T16:27:04.308Z,10.73
2022-12-11T16:29:34.915Z,11.57
2022-12-11T16:32:02.828Z,13.30
2022-12-11T16:34:30.735Z,13.93
2022-12-11T16:36:59.482Z,14.67
2022-12-11T16:39:27.877Z,13.47
2022-12-11T16:41:55.801Z,15.60
2022-12-11T16:44:26.748Z,12.40
2022-12-11T16:46:55.276Z,19.00
2022-12-11T16:49:23.763Z,12.57
2022-12-11T16:51:51.697Z,15.60
2022-12-11T16:54:19.875Z,18.67
2022-12-11T16:56:48.377Z,13.70
2022-12-11T16:59:16.409Z,14.93
2022-12-11T17:01:46.026Z,21.73
2022-12-11T17:04:13.990Z,11.63
2022-12-11T17:06:41.869Z,28.10
2022-12-11T17:09:10.421Z,13.80
2022-12-11T17:11:38.385Z,22.30
2022-12-11T17:14:06.379Z,17.80
2022-12-11T17:16:34.370Z,12.87
2022-12-11T17:19:05.316Z,14.90
2022-12-11T17:21:33.192Z,12.57
2022-12-11T17:24:01.436Z,14.43
2022-12-11T17:26:29.626Z,14.73
2022-12-11T17:28:57.732Z,12.83
2022-12-11T17:31:25.820Z,16.40
2022-12-11T17:33:53.984Z,15.80
2022-12-11T17:36:23.493Z,18.47
2022-12-11T17:38:51.423Z,15.70
2022-12-11T17:41:21.165Z,13.77
2022-12-11T17:43:49.601Z,13.37
2022-12-11T17:46:18.147Z,13.13
2022-12-11T17:48:46.221Z,16.37
2022-12-11T17:51:21.035Z,12.33
2022-12-11T17:53:50.753Z,10.17
2022-12-11T17:56:19.048Z,18.00
2022-12-11T17:58:46.986Z,14.37
2022-12-11T18:01:15.079Z,10.93
2022-12-11T18:03:43.237Z,12.90
2022-12-11T18:06:14.361Z,12.20
2022-12-11T18:08:42.483Z,14.70
2022-12-11T18:11:13.968Z,10.43
2022-12-11T18:13:42.111Z,13.23
2022-12-11T18:16:12.120Z,11.50
2022-12-11T18:18:40.603Z,13.90
2022-12-11T18:21:08.560Z,13.07
2022-12-11T18:23:36.504Z,13.47
2022-12-11T18:26:04.573Z,12.80
2022-12-11T18:28:33.854Z,13.03
2022-12-11T18:31:02.385Z,14.67
2022-12-11T18:33:31.212Z,13.13
2022-12-11T18:35:59.164Z,17.20
2022-12-11T18:38:27.220Z,19.57
2022-12-11T18:40:55.091Z,19.93
2022-12-11T18:43:23.007Z,13.63
2022-12-11T18:45:52.297Z,17.23
2022-12-11T18:48:20.185Z,12.57
2022-12-11T18:50:48.995Z,19.80
2022-12-11T18:53:17.976Z,12.00
2022-12-11T18:55:47.695Z,11.37
2022-12-11T18:58:17.454Z,13.07
2022-12-11T19:00:46.128Z,11.53
2022-12-11T19:03:15.539Z,11.63
2022-12-11T19:05:43.984Z,10.40
2022-12-11T19:08:13.941Z,11.37
2022-12-11T19:10:43.521Z,11.47
2022-12-11T19:13:11.712Z,12.83
2022-12-11T19:15:41.855Z,11.60
2022-12-11T19:18:10.044Z,15.30
2022-12-11T19:20:49.777Z,12.97
2022-12-11T19:23:20.950Z,10.73
2022-12-11T19:25:49.291Z,9.60
2022-12-11T19:28:17.835Z,8.73
2022-12-11T19:30:46.177Z,7.60
2022-12-11T19:33:14.175Z,7.63
2022-12-11T19:35:43.944Z,8.27
2022-12-11T19:38:12.748Z,9.57
2022-12-11T19:40:42.278Z,11.00
2022-12-11T19:43:10.367Z,12.33
2022-12-11T19:45:38.532Z,11.03
2022-12-11T19:48:06.918Z,12.87
2022-12-11T19:50:36.363Z,7.67
2022-12-11T19:53:05.694Z,22.00
2022-12-11T19:55:33.964Z,9.30
2022-12-11T19:58:01.881Z,7.20
2022-12-11T20:00:29.819Z,31.23
2022-12-11T20:02:57.836Z,9.90
2022-12-11T20:05:25.707Z,7.90
2022-12-11T20:07:53.659Z,10.73
2022-12-11T20:10:22.993Z,10.60
2022-12-11T20:12:52.526Z,10.30
2022-12-11T20:15:20.541Z,11.17
2022-12-11T20:17:48.462Z,13.90
2022-12-11T20:20:16.372Z,9.90
2022-12-11T20:22:44.292Z,7.00
2022-12-11T20:25:12.619Z,18.90
2022-12-11T20:27:42.147Z,10.20
2022-12-11T20:30:11.137Z,9.23
2022-12-11T20:32:39.239Z,10.50
2022-12-11T20:35:08.469Z,8.00
2022-12-11T20:37:36.604Z,9.77
2022-12-11T20:40:05.448Z,12.10
2022-12-11T20:42:33.766Z,13.90
2022-12-11T20:45:03.098Z,13.00
2022-12-11T20:47:31.010Z,15.20
2022-12-11T20:49:59.090Z,11.67
2022-12-11T20:52:28.078Z,24.27
2022-12-11T20:54:55.966Z,20.97
2022-12-11T20:57:23.967Z,16.30
2022-12-11T20:59:51.896Z,26.77
2022-12-11T21:02:21.248Z,24.80
2022-12-11T21:04:49.220Z,16.17
2022-12-11T21:07:17.269Z,16.33
2022-12-11T21:09:45.158Z,29.40
2022-12-11T21:12:13.054Z,20.77
2022-12-11T21:14:41.062Z,26.60
2022-12-11T21:17:09.088Z,23.00
2022-12-11T21:19:38.368Z,17.80
2022-12-11T21:22:06.734Z,9.23
2022-12-11T21:24:34.703Z,18.57
2022-12-11T21:27:02.576Z,23.00
2022-12-11T21:29:30.505Z,34.47
2022-12-11T21:31:59.140Z,28.43
2022-12-11T21:34:27.541Z,20.70
2022-12-11T21:36:57.472Z,25.63
2022-12-11T21:39:26.103Z,27.17
2022-12-11T21:41:54.007Z,18.50
2022-12-11T21:47:09.850Z,15.70
2022-12-11T21:49:38.391Z,11.40
2022-12-11T21:52:08.425Z,11.90
2022-12-11T21:54:36.333Z,12.33
2022-12-11T21:57:04.821Z,15.40
2022-12-11T21:59:33.007Z,13.07
2022-12-11T22:02:01.177Z,12.93
2022-12-11T22:04:29.155Z,13.57
2022-12-11T22:06:57.092Z,14.60
2022-12-11T22:09:26.795Z,14.40
2022-12-11T22:11:58.324Z,13.03
2022-12-11T22:14:26.825Z,14.30
2022-12-11T22:16:54.752Z,8.83
2022-12-11T22:19:23.990Z,10.40
2022-12-11T22:21:54.517Z,10.23
2022-12-11T22:24:22.433Z,9.53
2022-12-11T22:26:51.709Z,8.43
2022-12-11T22:29:19.579Z,7.37
2022-12-11T22:31:47.583Z,6.63
2022-12-11T22:34:15.605Z,7.23
2022-12-11T22:36:43.485Z,9.23
2022-12-11T22:39:11.367Z,7.50
2022-12-11T22:41:42.235Z,7.40
2022-12-11T22:44:15.070Z,6.30
2022-12-11T22:46:49.492Z,7.77
2022-12-11T22:49:18.355Z,8.50
2022-12-11T22:51:46.252Z,7.50
2022-12-11T22:54:14.161Z,7.00
2022-12-11T22:56:42.092Z,7.33
2022-12-11T22:59:10.069Z,9.60
2022-12-11T23:01:39.341Z,7.90
2022-12-11T23:04:07.283Z,6.00
2022-12-11T23:06:35.419Z,7.07
2022-12-11T23:09:04.006Z,5.83
2022-12-11T23:11:36.289Z,8.40
2022-12-11T23:14:04.608Z,5.87
2022-12-11T23:16:32.618Z,6.80
2022-12-11T23:19:01.992Z,5.97
2022-12-11T23:21:30.075Z,9.70
2022-12-11T23:24:00.390Z,8.10
2022-12-11T23:26:29.644Z,8.43
2022-12-11T23:28:58.659Z,7.63
2022-12-11T23:31:27.260Z,6.83
2022-12-11T23:33:55.450Z,8.20
2022-12-11T23:36:25.320Z,5.40
2022-12-11T23:38:55.014Z,7.73
2022-12-11T23:41:23.755Z,5.90
2022-12-11T23:43:51.673Z,6.27
2022-12-11T23:46:21.139Z,7.30
2022-12-11T23:48:49.460Z,7.20
2022-12-11T23:51:19.028Z,8.43
2022-12-11T23:53:48.316Z,12.00
2022-12-11T23:56:18.350Z,10.60
2022-12-11T23:58:46.472Z,9.30
